Heredia, Costa Rica
Current Conditions -  °F | °C
As of 12:00 PM on Saturday 20 Dec 2014 (Local Time) from MROC Reporting Station
Few Clouds Few Clouds  
Wind Chill: 82°   Ceiling: Unl
Heat Index: 82°   Visibility: 6mi
Dew Point: 52°   Wind: 16mph
Humidity: 35%   Direction: 90°E
Pressure: 30.01"   Gusts: NA
Location:  10°N, 84.12°W
Report Text: MROC 201800Z 09014KT 9999 FEW035 28/11 A3001 NOSIG
Loading
Personal Weather Stations






























Interactive Weather Map New forecast layout! Learn more

10-Day Weather Forecast

Advertisements
Track Severe Weather on mobile